sensor_id;sensor_type;location;lat;lon;timestamp;pressure;altitude;pressure_sealevel;temperature;humidity
80149;BME280;69473;42.426;26.644;2023-05-02T00:01:08;99573.84;;;11.95;39.77
80149;BME280;69473;42.426;26.644;2023-05-02T00:03:34;99572.06;;;11.75;41.64
80149;BME280;69473;42.426;26.644;2023-05-02T00:06:01;99572.91;;;11.62;42.29
80149;BME280;69473;42.426;26.644;2023-05-02T00:08:26;99572.03;;;11.63;42.23
80149;BME280;69473;42.426;26.644;2023-05-02T00:10:52;99578.97;;;11.70;42.38
80149;BME280;69473;42.426;26.644;2023-05-02T00:13:17;99573.75;;;11.64;41.22
80149;BME280;69473;42.426;26.644;2023-05-02T00:15:43;99575.50;;;11.62;42.06
80149;BME280;69473;42.426;26.644;2023-05-02T00:18:08;99563.38;;;11.55;43.09
80149;BME280;69473;42.426;26.644;2023-05-02T00:20:34;99558.19;;;11.58;42.44
80149;BME280;69473;42.426;26.644;2023-05-02T00:23:00;99564.28;;;11.78;42.46
80149;BME280;69473;42.426;26.644;2023-05-02T00:25:25;99572.13;;;11.88;42.64
80149;BME280;69473;42.426;26.644;2023-05-02T00:27:51;99566.94;;;11.97;42.82
80149;BME280;69473;42.426;26.644;2023-05-02T00:30:17;99563.47;;;12.07;41.70
80149;BME280;69473;42.426;26.644;2023-05-02T00:32:43;99573.00;;;12.10;42.26
80149;BME280;69473;42.426;26.644;2023-05-02T00:35:09;99565.19;;;12.05;43.37
80149;BME280;69473;42.426;26.644;2023-05-02T00:37:35;99560.00;;;11.90;43.34
80149;BME280;69473;42.426;26.644;2023-05-02T00:40:01;99561.69;;;11.69;43.04
80149;BME280;69473;42.426;26.644;2023-05-02T00:42:27;99572.91;;;11.67;42.45
80149;BME280;69473;42.426;26.644;2023-05-02T00:44:56;99561.66;;;11.63;41.90
80149;BME280;69473;42.426;26.644;2023-05-02T00:47:22;99555.59;;;11.56;42.59
80149;BME280;69473;42.426;26.644;2023-05-02T00:49:48;99565.16;;;11.68;41.81
80149;BME280;69473;42.426;26.644;2023-05-02T00:52:14;99559.97;;;11.74;40.66
80149;BME280;69473;42.426;26.644;2023-05-02T00:54:40;99549.56;;;11.84;40.13
80149;BME280;69473;42.426;26.644;2023-05-02T00:57:06;99566.88;;;11.82;39.70
80149;BME280;69473;42.426;26.644;2023-05-02T00:59:33;99570.34;;;11.71;40.55
80149;BME280;69473;42.426;26.644;2023-05-02T01:02:25;99576.38;;;11.63;40.55
80149;BME280;69473;42.426;26.644;2023-05-02T01:12:44;99574.59;;;11.46;40.47
80149;BME280;69473;42.426;26.644;2023-05-02T01:15:18;99574.56;;;11.39;40.58
80149;BME280;69473;42.426;26.644;2023-05-02T01:17:46;99573.66;;;11.30;40.35
80149;BME280;69473;42.426;26.644;2023-05-02T01:20:18;99572.78;;;11.24;41.67
80149;BME280;69473;42.426;26.644;2023-05-02T01:22:46;99567.53;;;11.07;42.20
80149;BME280;69473;42.426;26.644;2023-05-02T01:30:49;99575.22;;;10.89;43.33
80149;BME280;69473;42.426;26.644;2023-05-02T01:33:17;99566.47;;;10.71;44.03
80149;BME280;69473;42.426;26.644;2023-05-02T01:35:49;99565.50;;;10.48;44.76
80149;BME280;69473;42.426;26.644;2023-05-02T01:38:18;99570.63;;;10.43;43.92
80149;BME280;69473;42.426;26.644;2023-05-02T01:40:45;99575.78;;;10.38;45.41
80149;BME280;69473;42.426;26.644;2023-05-02T01:43:15;99582.72;;;10.43;44.22
80149;BME280;69473;42.426;26.644;2023-05-02T01:45:44;99578.38;;;10.38;44.98
80149;BME280;69473;42.426;26.644;2023-05-02T01:48:14;99593.91;;;10.35;45.34
80149;BME280;69473;42.426;26.644;2023-05-02T01:50:43;99583.34;;;10.17;47.95
80149;BME280;69473;42.426;26.644;2023-05-02T01:53:11;99592.63;;;9.93;48.09
80149;BME280;69473;42.426;26.644;2023-05-02T01:55:42;99599.28;;;9.68;48.51
80149;BME280;69473;42.426;26.644;2023-05-02T01:58:11;99591.28;;;9.45;50.13
80149;BME280;69473;42.426;26.644;2023-05-02T02:00:39;99600.81;;;9.49;49.76
80149;BME280;69473;42.426;26.644;2023-05-02T02:03:08;99596.53;;;9.52;48.92
80149;BME280;69473;42.426;26.644;2023-05-02T02:05:36;99610.50;;;9.66;48.35
80149;BME280;69473;42.426;26.644;2023-05-02T02:08:04;99613.88;;;9.62;49.78
80149;BME280;69473;42.426;26.644;2023-05-02T02:10:35;99603.44;;;9.53;49.83
80149;BME280;69473;42.426;26.644;2023-05-02T02:13:26;99615.41;;;9.41;49.92
80149;BME280;69473;42.426;26.644;2023-05-02T02:15:58;99611.88;;;9.36;49.78
80149;BME280;69473;42.426;26.644;2023-05-02T02:18:27;99609.25;;;9.32;50.76
80149;BME280;69473;42.426;26.644;2023-05-02T02:20:54;99608.25;;;9.22;51.32
80149;BME280;69473;42.426;26.644;2023-05-02T02:23:26;99604.91;;;9.31;50.40
80149;BME280;69473;42.426;26.644;2023-05-02T02:25:55;99603.50;;;9.59;48.36
80149;BME280;69473;42.426;26.644;2023-05-02T02:28:21;99600.88;;;9.54;48.09
80149;BME280;69473;42.426;26.644;2023-05-02T02:30:47;99603.88;;;9.18;50.29
80149;BME280;69473;42.426;26.644;2023-05-02T02:33:12;99610.50;;;8.94;52.45
80149;BME280;69473;42.426;26.644;2023-05-02T02:35:43;99599.38;;;9.01;52.19
80149;BME280;69473;42.426;26.644;2023-05-02T02:38:22;99610.66;;;9.07;51.06
80149;BME280;69473;42.426;26.644;2023-05-02T02:40:59;99607.75;;;8.82;52.77
80149;BME280;69473;42.426;26.644;2023-05-02T02:46:47;99616.69;;;9.09;52.81
80149;BME280;69473;42.426;26.644;2023-05-02T02:52:09;99612.22;;;9.67;50.79
80149;BME280;69473;42.426;26.644;2023-05-02T02:54:58;99605.44;;;9.78;50.83
80149;BME280;69473;42.426;26.644;2023-05-02T02:57:40;99610.81;;;10.00;48.52
80149;BME280;69473;42.426;26.644;2023-05-02T03:00:21;99609.00;;;9.89;47.76
80149;BME280;69473;42.426;26.644;2023-05-02T03:02:51;99610.84;;;10.03;48.20
80149;BME280;69473;42.426;26.644;2023-05-02T03:05:18;99615.16;;;10.01;47.45
80149;BME280;69473;42.426;26.644;2023-05-02T03:07:46;99616.06;;;10.09;46.50
80149;BME280;69473;42.426;26.644;2023-05-02T03:10:11;99607.44;;;10.07;46.61
80149;BME280;69473;42.426;26.644;2023-05-02T03:12:37;99612.66;;;10.10;46.21
80149;BME280;69473;42.426;26.644;2023-05-02T03:17:46;99623.97;;;10.23;46.40
80149;BME280;69473;42.426;26.644;2023-05-02T03:20:11;99628.31;;;10.25;45.41
80149;BME280;69473;42.426;26.644;2023-05-02T03:22:36;99628.28;;;10.19;46.21
80149;BME280;69473;42.426;26.644;2023-05-02T03:25:02;99629.88;;;10.08;45.22
80149;BME280;69473;42.426;26.644;2023-05-02T03:27:28;99633.31;;;10.04;45.72
80149;BME280;69473;42.426;26.644;2023-05-02T03:29:53;99635.09;;;10.11;46.42
80149;BME280;69473;42.426;26.644;2023-05-02T03:32:19;99640.28;;;10.11;46.00
80149;BME280;69473;42.426;26.644;2023-05-02T03:34:45;99643.69;;;10.07;45.63
80149;BME280;69473;42.426;26.644;2023-05-02T03:37:10;99640.31;;;10.17;47.17
80149;BME280;69473;42.426;26.644;2023-05-02T03:39:36;99637.00;;;10.27;45.29
80149;BME280;69473;42.426;26.644;2023-05-02T03:42:01;99628.47;;;10.37;45.70
80149;BME280;69473;42.426;26.644;2023-05-02T03:44:27;99637.25;;;10.61;45.89
80149;BME280;69473;42.426;26.644;2023-05-02T03:46:52;99644.22;;;10.68;44.51
80149;BME280;69473;42.426;26.644;2023-05-02T03:49:18;99647.75;;;10.76;45.04
80149;BME280;69473;42.426;26.644;2023-05-02T03:51:44;99644.38;;;10.93;44.15
80149;BME280;69473;42.426;26.644;2023-05-02T03:54:09;99655.78;;;11.16;43.35
80149;BME280;69473;42.426;26.644;2023-05-02T03:56:35;99660.25;;;11.51;43.12
80149;BME280;69473;42.426;26.644;2023-05-02T03:59:01;99667.25;;;11.79;42.21
80149;BME280;69473;42.426;26.644;2023-05-02T04:01:28;99661.31;;;12.13;40.87
80149;BME280;69473;42.426;26.644;2023-05-02T04:03:53;99650.97;;;12.37;40.58
80149;BME280;69473;42.426;26.644;2023-05-02T04:06:19;99655.25;;;12.67;39.94
80149;BME280;69473;42.426;26.644;2023-05-02T04:08:44;99664.78;;;12.88;38.79
80149;BME280;69473;42.426;26.644;2023-05-02T04:11:10;99654.38;;;13.08;39.29
80149;BME280;69473;42.426;26.644;2023-05-02T04:13:35;99662.09;;;13.33;39.05
80149;BME280;69473;42.426;26.644;2023-05-02T04:16:01;99656.84;;;13.45;39.27
80149;BME280;69473;42.426;26.644;2023-05-02T04:18:26;99668.97;;;13.58;38.99
80149;BME280;69473;42.426;26.644;2023-05-02T04:20:52;99661.97;;;13.70;37.99
80149;BME280;69473;42.426;26.644;2023-05-02T04:23:18;99658.41;;;13.83;37.91
80149;BME280;69473;42.426;26.644;2023-05-02T04:25:53;99662.69;;;13.98;37.15
80149;BME280;69473;42.426;26.644;2023-05-02T04:28:20;99661.75;;;14.09;37.95
80149;BME280;69473;42.426;26.644;2023-05-02T04:30:47;99665.97;;;14.26;36.93
80149;BME280;69473;42.426;26.644;2023-05-02T04:33:13;99665.09;;;14.30;37.15
80149;BME280;69473;42.426;26.644;2023-05-02T04:35:39;99652.81;;;14.41;37.58
80149;BME280;69473;42.426;26.644;2023-05-02T04:38:05;99659.69;;;14.54;36.94
80149;BME280;69473;42.426;26.644;2023-05-02T04:40:32;99664.25;;;14.22;37.33
80149;BME280;69473;42.426;26.644;2023-05-02T04:42:57;99671.28;;;14.12;40.79
80149;BME280;69473;42.426;26.644;2023-05-02T04:45:24;99673.91;;;14.04;44.22
80149;BME280;69473;42.426;26.644;2023-05-02T04:47:50;99671.31;;;14.06;41.00
80149;BME280;69473;42.426;26.644;2023-05-02T04:50:15;99662.16;;;14.70;39.06
80149;BME280;69473;42.426;26.644;2023-05-02T04:52:41;99668.00;;;14.99;37.27
80149;BME280;69473;42.426;26.644;2023-05-02T04:55:07;99673.44;;;14.75;43.65
80149;BME280;69473;42.426;26.644;2023-05-02T04:57:32;99675.16;;;14.76;44.47
80149;BME280;69473;42.426;26.644;2023-05-02T04:59:58;99677.13;;;14.52;46.25
80149;BME280;69473;42.426;26.644;2023-05-02T05:02:23;99688.53;;;14.31;45.89
80149;BME280;69473;42.426;26.644;2023-05-02T05:04:50;99678.88;;;14.44;44.00
80149;BME280;69473;42.426;26.644;2023-05-02T05:07:16;99681.38;;;14.60;44.75
80149;BME280;69473;42.426;26.644;2023-05-02T05:09:42;99679.53;;;14.74;44.48
80149;BME280;69473;42.426;26.644;2023-05-02T05:12:07;99675.69;;;15.12;44.93
80149;BME280;69473;42.426;26.644;2023-05-02T05:14:33;99675.41;;;15.39;45.00
80149;BME280;69473;42.426;26.644;2023-05-02T05:16:59;99682.00;;;15.66;42.35
80149;BME280;69473;42.426;26.644;2023-05-02T05:19:24;99683.13;;;15.48;41.97
80149;BME280;69473;42.426;26.644;2023-05-02T05:21:50;99686.31;;;15.75;42.43
80149;BME280;69473;42.426;26.644;2023-05-02T05:24:16;99680.66;;;16.06;41.11
80149;BME280;69473;42.426;26.644;2023-05-02T05:26:41;99670.13;;;16.12;41.41
80149;BME280;69473;42.426;26.644;2023-05-02T05:29:07;99676.03;;;16.80;39.07
80149;BME280;69473;42.426;26.644;2023-05-02T05:31:33;99681.34;;;16.76;38.33
80149;BME280;69473;42.426;26.644;2023-05-02T05:33:58;99677.22;;;17.12;37.50
80149;BME280;69473;42.426;26.644;2023-05-02T05:36:25;99691.19;;;17.58;37.57
80149;BME280;69473;42.426;26.644;2023-05-02T05:38:52;99674.31;;;18.86;34.91
80149;BME280;69473;42.426;26.644;2023-05-02T05:41:17;99683.03;;;19.52;33.91
80149;BME280;69473;42.426;26.644;2023-05-02T05:43:43;99679.88;;;20.84;31.46
80149;BME280;69473;42.426;26.644;2023-05-02T05:46:08;99670.13;;;22.07;29.18
80149;BME280;69473;42.426;26.644;2023-05-02T05:48:34;99676.13;;;22.56;25.82
80149;BME280;69473;42.426;26.644;2023-05-02T05:51:06;99682.13;;;23.02;24.22
80149;BME280;69473;42.426;26.644;2023-05-02T05:53:32;99677.44;;;23.68;23.67
80149;BME280;69473;42.426;26.644;2023-05-02T05:55:58;99686.69;;;23.58;23.48
80149;BME280;69473;42.426;26.644;2023-05-02T05:58:24;99681.22;;;24.75;21.79
80149;BME280;69473;42.426;26.644;2023-05-02T06:00:50;99676.22;;;24.69;21.55
80149;BME280;69473;42.426;26.644;2023-05-02T06:03:15;99679.97;;;24.64;21.63
80149;BME280;69473;42.426;26.644;2023-05-02T06:05:41;99686.28;;;25.65;20.74
80149;BME280;69473;42.426;26.644;2023-05-02T06:08:07;99685.34;;;24.80;20.73
80149;BME280;69473;42.426;26.644;2023-05-02T06:10:32;99681.91;;;25.64;21.42
80149;BME280;69473;42.426;26.644;2023-05-02T06:12:58;99689.72;;;24.99;21.69
80149;BME280;69473;42.426;26.644;2023-05-02T06:15:23;99683.53;;;26.31;21.08
80149;BME280;69473;42.426;26.644;2023-05-02T06:17:51;99685.22;;;26.32;20.69
80149;BME280;69473;42.426;26.644;2023-05-02T06:20:17;99675.41;;;25.69;20.76
80149;BME280;69473;42.426;26.644;2023-05-02T06:22:43;99681.28;;;25.92;20.16
80149;BME280;69473;42.426;26.644;2023-05-02T06:25:08;99681.97;;;26.43;20.26
80149;BME280;69473;42.426;26.644;2023-05-02T06:27:34;99679.06;;;26.32;19.66
80149;BME280;69473;42.426;26.644;2023-05-02T06:30:00;99682.16;;;26.24;19.62
80149;BME280;69473;42.426;26.644;2023-05-02T06:32:29;99685.31;;;26.46;20.00
80149;BME280;69473;42.426;26.644;2023-05-02T06:34:56;99684.50;;;27.79;19.03
80149;BME280;69473;42.426;26.644;2023-05-02T06:37:21;99683.53;;;26.31;19.78
80149;BME280;69473;42.426;26.644;2023-05-02T06:39:47;99683.91;;;27.46;19.55
80149;BME280;69473;42.426;26.644;2023-05-02T06:42:12;99694.38;;;27.77;19.35
80149;BME280;69473;42.426;26.644;2023-05-02T06:44:38;99684.88;;;26.38;20.39
80149;BME280;69473;42.426;26.644;2023-05-02T06:47:03;99689.25;;;27.01;19.49
80149;BME280;69473;42.426;26.644;2023-05-02T06:49:30;99691.59;;;28.35;18.84
80149;BME280;69473;42.426;26.644;2023-05-02T06:51:55;99693.63;;;29.63;17.54
80149;BME280;69473;42.426;26.644;2023-05-02T06:54:21;99698.34;;;29.97;16.69
80149;BME280;69473;42.426;26.644;2023-05-02T06:56:47;99678.22;;;30.17;17.39
80149;BME280;69473;42.426;26.644;2023-05-02T06:59:12;99695.19;;;29.53;17.00
80149;BME280;69473;42.426;26.644;2023-05-02T07:01:38;99688.50;;;28.82;17.20
80149;BME280;69473;42.426;26.644;2023-05-02T07:04:03;99689.47;;;29.72;17.42
80149;BME280;69473;42.426;26.644;2023-05-02T07:06:30;99692.94;;;29.09;16.64
80149;BME280;69473;42.426;26.644;2023-05-02T07:08:56;99691.34;;;29.83;16.26
80149;BME280;69473;42.426;26.644;2023-05-02T07:11:22;99682.22;;;30.83;15.35
80149;BME280;69473;42.426;26.644;2023-05-02T07:13:49;99689.22;;;29.88;15.14
80149;BME280;69473;42.426;26.644;2023-05-02T07:16:14;99680.91;;;29.29;15.62
80149;BME280;69473;42.426;26.644;2023-05-02T07:18:40;99687.47;;;30.60;15.04
80149;BME280;69473;42.426;26.644;2023-05-02T07:21:06;99684.81;;;32.10;13.90
80149;BME280;69473;42.426;26.644;2023-05-02T07:23:33;99687.25;;;31.79;15.19
80149;BME280;69473;42.426;26.644;2023-05-02T07:25:59;99680.28;;;29.38;15.59
80149;BME280;69473;42.426;26.644;2023-05-02T07:28:24;99683.00;;;30.00;16.03
80149;BME280;69473;42.426;26.644;2023-05-02T07:30:50;99693.88;;;30.34;15.24
80149;BME280;69473;42.426;26.644;2023-05-02T07:33:15;99692.38;;;31.48;14.42
80149;BME280;69473;42.426;26.644;2023-05-02T07:35:42;99691.03;;;30.24;15.28
80149;BME280;69473;42.426;26.644;2023-05-02T07:38:08;99696.25;;;31.56;15.15
80149;BME280;69473;42.426;26.644;2023-05-02T07:40:33;99699.91;;;30.25;15.46
80149;BME280;69473;42.426;26.644;2023-05-02T07:43:02;99689.75;;;28.76;16.07
80149;BME280;69473;42.426;26.644;2023-05-02T07:45:27;99687.66;;;26.21;20.00
80149;BME280;69473;42.426;26.644;2023-05-02T07:47:53;99702.06;;;23.29;21.52
80149;BME280;69473;42.426;26.644;2023-05-02T07:50:19;99706.50;;;22.22;24.83
80149;BME280;69473;42.426;26.644;2023-05-02T07:52:44;99704.22;;;21.89;25.11
80149;BME280;69473;42.426;26.644;2023-05-02T07:55:10;99699.97;;;21.62;26.48
80149;BME280;69473;42.426;26.644;2023-05-02T07:57:36;99699.63;;;21.71;26.23
80149;BME280;69473;42.426;26.644;2023-05-02T08:00:02;99696.34;;;20.89;26.81
80149;BME280;69473;42.426;26.644;2023-05-02T08:02:27;99704.69;;;21.27;26.26
80149;BME280;69473;42.426;26.644;2023-05-02T08:04:53;99702.69;;;21.35;27.23
80149;BME280;69473;42.426;26.644;2023-05-02T08:07:18;99706.03;;;20.62;25.19
80149;BME280;69473;42.426;26.644;2023-05-02T08:09:44;99703.88;;;20.75;26.58
80149;BME280;69473;42.426;26.644;2023-05-02T08:12:09;99703.56;;;20.84;26.50
80149;BME280;69473;42.426;26.644;2023-05-02T08:14:35;99696.06;;;20.72;27.08
80149;BME280;69473;42.426;26.644;2023-05-02T08:17:00;99693.19;;;21.05;27.96
80149;BME280;69473;42.426;26.644;2023-05-02T08:19:26;99692.00;;;20.88;25.33
80149;BME280;69473;42.426;26.644;2023-05-02T08:21:53;99695.38;;;20.65;24.60
80149;BME280;69473;42.426;26.644;2023-05-02T08:24:19;99699.69;;;20.68;25.56
80149;BME280;69473;42.426;26.644;2023-05-02T08:26:44;99695.34;;;20.93;26.50
80149;BME280;69473;42.426;26.644;2023-05-02T08:29:10;99688.97;;;20.74;25.75
80149;BME280;69473;42.426;26.644;2023-05-02T08:31:36;99690.88;;;20.95;26.74
80149;BME280;69473;42.426;26.644;2023-05-02T08:34:02;99694.13;;;21.04;26.65
80149;BME280;69473;42.426;26.644;2023-05-02T08:36:27;99692.56;;;21.23;26.53
80149;BME280;69473;42.426;26.644;2023-05-02T08:38:53;99698.66;;;21.25;26.00
80149;BME280;69473;42.426;26.644;2023-05-02T08:41:21;99685.47;;;21.25;24.84
80149;BME280;69473;42.426;26.644;2023-05-02T08:43:47;99700.28;;;21.03;25.36
80149;BME280;69473;42.426;26.644;2023-05-02T08:46:16;99694.47;;;21.18;25.95
80149;BME280;69473;42.426;26.644;2023-05-02T08:48:43;99697.28;;;20.88;24.53
80149;BME280;69473;42.426;26.644;2023-05-02T08:51:14;99693.19;;;21.05;26.69
80149;BME280;69473;42.426;26.644;2023-05-02T08:53:40;99690.09;;;20.93;27.19
80149;BME280;69473;42.426;26.644;2023-05-02T08:56:07;99696.53;;;21.10;26.91
80149;BME280;69473;42.426;26.644;2023-05-02T08:58:37;99691.06;;;21.16;24.22
80149;BME280;69473;42.426;26.644;2023-05-02T09:01:09;99688.34;;;20.92;24.41
80149;BME280;69473;42.426;26.644;2023-05-02T09:03:37;99693.09;;;21.08;24.44
80149;BME280;69473;42.426;26.644;2023-05-02T09:08:35;99684.41;;;20.52;23.75
80149;BME280;69473;42.426;26.644;2023-05-02T09:11:02;99689.47;;;20.30;25.66
80149;BME280;69473;42.426;26.644;2023-05-02T09:18:34;99684.19;;;20.30;25.72
80149;BME280;69473;42.426;26.644;2023-05-02T09:21:04;99676.09;;;20.91;26.39
80149;BME280;69473;42.426;26.644;2023-05-02T09:23:37;99670.97;;;21.12;26.57
80149;BME280;69473;42.426;26.644;2023-05-02T09:26:24;99684.69;;;20.96;26.16
80149;BME280;69473;42.426;26.644;2023-05-02T09:28:53;99679.56;;;20.93;24.56
80149;BME280;69473;42.426;26.644;2023-05-02T09:31:25;99684.81;;;20.93;26.77
80149;BME280;69473;42.426;26.644;2023-05-02T09:33:51;99670.63;;;20.97;26.58
80149;BME280;69473;42.426;26.644;2023-05-02T09:36:18;99671.41;;;20.99;25.24
80149;BME280;69473;42.426;26.644;2023-05-02T09:38:48;99673.50;;;21.15;26.69
80149;BME280;69473;42.426;26.644;2023-05-02T09:41:15;99673.16;;;21.26;26.59
80149;BME280;69473;42.426;26.644;2023-05-02T09:43:42;99670.31;;;21.07;25.87
80149;BME280;69473;42.426;26.644;2023-05-02T09:46:10;99661.91;;;20.95;25.45
80149;BME280;69473;42.426;26.644;2023-05-02T09:48:56;99662.31;;;21.33;26.52
80149;BME280;69473;42.426;26.644;2023-05-02T09:51:23;99669.03;;;21.43;26.48
80149;BME280;69473;42.426;26.644;2023-05-02T09:53:50;99667.16;;;21.45;25.66
80149;BME280;69473;42.426;26.644;2023-05-02T09:56:17;99654.59;;;21.04;25.01
80149;BME280;69473;42.426;26.644;2023-05-02T09:58:43;99668.13;;;21.18;26.22
80149;BME280;69473;42.426;26.644;2023-05-02T10:01:19;99659.09;;;20.75;25.82
80149;BME280;69473;42.426;26.644;2023-05-02T10:03:48;99656.50;;;21.23;26.50
80149;BME280;69473;42.426;26.644;2023-05-02T10:06:14;99656.75;;;21.42;26.71
80149;BME280;69473;42.426;26.644;2023-05-02T10:08:41;99651.91;;;21.77;27.17
80149;BME280;69473;42.426;26.644;2023-05-02T10:11:12;99650.34;;;21.50;25.48
80149;BME280;69473;42.426;26.644;2023-05-02T10:13:39;99652.75;;;21.56;25.50
80149;BME280;69473;42.426;26.644;2023-05-02T10:16:08;99651.56;;;21.39;24.91
80149;BME280;69473;42.426;26.644;2023-05-02T10:18:49;99646.59;;;21.07;26.31
80149;BME280;69473;42.426;26.644;2023-05-02T10:21:24;99636.31;;;20.99;26.70
80149;BME280;69473;42.426;26.644;2023-05-02T10:23:54;99637.81;;;21.55;26.64
80149;BME280;69473;42.426;26.644;2023-05-02T10:26:21;99638.88;;;21.51;24.43
80149;BME280;69473;42.426;26.644;2023-05-02T10:28:49;99643.66;;;21.39;26.57
80149;BME280;69473;42.426;26.644;2023-05-02T10:31:16;99622.25;;;21.72;28.31
80149;BME280;69473;42.426;26.644;2023-05-02T10:33:42;99637.47;;;21.87;26.10
80149;BME280;69473;42.426;26.644;2023-05-02T10:36:09;99633.72;;;21.48;25.18
80149;BME280;69473;42.426;26.644;2023-05-02T10:38:38;99622.19;;;21.50;25.83
80149;BME280;69473;42.426;26.644;2023-05-02T10:41:11;99628.19;;;21.77;25.38
80149;BME280;69473;42.426;26.644;2023-05-02T10:43:38;99632.06;;;21.68;26.17
80149;BME280;69473;42.426;26.644;2023-05-02T10:46:36;99625.88;;;21.68;26.30
80149;BME280;69473;42.426;26.644;2023-05-02T10:49:10;99621.00;;;21.59;25.46
80149;BME280;69473;42.426;26.644;2023-05-02T10:51:40;99626.91;;;21.87;27.35
80149;BME280;69473;42.426;26.644;2023-05-02T10:59:38;99617.69;;;21.76;25.53
80149;BME280;69473;42.426;26.644;2023-05-02T11:05:05;99616.84;;;21.75;28.11
80149;BME280;69473;42.426;26.644;2023-05-02T11:07:36;99621.16;;;22.00;29.58
80149;BME280;69473;42.426;26.644;2023-05-02T11:15:13;99610.59;;;21.78;26.93
80149;BME280;69473;42.426;26.644;2023-05-02T11:17:58;99614.88;;;21.80;26.64
80149;BME280;69473;42.426;26.644;2023-05-02T11:20:24;99619.84;;;21.42;27.91
80149;BME280;69473;42.426;26.644;2023-05-02T11:22:50;99593.03;;;21.77;27.54
80149;BME280;69473;42.426;26.644;2023-05-02T11:25:55;99604.75;;;22.13;28.95
80149;BME280;69473;42.426;26.644;2023-05-02T11:31:06;99607.06;;;21.77;27.14
80149;BME280;69473;42.426;26.644;2023-05-02T11:33:32;99603.09;;;22.11;29.61
80149;BME280;69473;42.426;26.644;2023-05-02T11:35:57;99596.84;;;22.35;27.35
80149;BME280;69473;42.426;26.644;2023-05-02T11:38:25;99585.50;;;22.33;27.89
80149;BME280;69473;42.426;26.644;2023-05-02T11:40:51;99597.94;;;22.52;29.09
80149;BME280;69473;42.426;26.644;2023-05-02T11:43:19;99593.41;;;22.33;27.78
80149;BME280;69473;42.426;26.644;2023-05-02T11:45:46;99594.28;;;22.12;29.59
80149;BME280;69473;42.426;26.644;2023-05-02T11:48:14;99597.94;;;22.08;29.75
80149;BME280;69473;42.426;26.644;2023-05-02T11:50:46;99597.50;;;22.20;29.31
80149;BME280;69473;42.426;26.644;2023-05-02T11:53:13;99583.66;;;22.35;28.67
80149;BME280;69473;42.426;26.644;2023-05-02T11:55:53;99589.88;;;22.34;27.90
80149;BME280;69473;42.426;26.644;2023-05-02T11:58:26;99574.53;;;22.00;30.02
80149;BME280;69473;42.426;26.644;2023-05-02T12:00:57;99581.16;;;21.88;27.99
80149;BME280;69473;42.426;26.644;2023-05-02T12:03:25;99589.19;;;21.85;28.86
80149;BME280;69473;42.426;26.644;2023-05-02T12:05:51;99585.69;;;22.07;30.00
80149;BME280;69473;42.426;26.644;2023-05-02T12:08:26;99579.88;;;22.21;28.07
80149;BME280;69473;42.426;26.644;2023-05-02T12:10:53;99579.81;;;22.22;28.10
80149;BME280;69473;42.426;26.644;2023-05-02T12:13:21;99575.59;;;22.18;28.60
80149;BME280;69473;42.426;26.644;2023-05-02T12:15:49;99578.00;;;22.24;28.32
80149;BME280;69473;42.426;26.644;2023-05-02T12:18:17;99578.19;;;21.96;29.35
80149;BME280;69473;42.426;26.644;2023-05-02T12:20:44;99569.28;;;21.99;30.58
80149;BME280;69473;42.426;26.644;2023-05-02T12:23:11;99562.66;;;22.10;29.60
80149;BME280;69473;42.426;26.644;2023-05-02T12:25:39;99576.13;;;21.82;28.47
80149;BME280;69473;42.426;26.644;2023-05-02T12:28:05;99563.84;;;21.81;29.00
80149;BME280;69473;42.426;26.644;2023-05-02T12:30:31;99561.84;;;21.42;29.18
80149;BME280;69473;42.426;26.644;2023-05-02T12:33:01;99559.72;;;21.96;28.71
80149;BME280;69473;42.426;26.644;2023-05-02T12:35:28;99550.81;;;21.99;29.28
80149;BME280;69473;42.426;26.644;2023-05-02T12:38:08;99559.66;;;21.98;29.28
80149;BME280;69473;42.426;26.644;2023-05-02T12:40:34;99546.66;;;21.71;28.32
80149;BME280;69473;42.426;26.644;2023-05-02T12:43:04;99544.94;;;21.70;28.51
80149;BME280;69473;42.426;26.644;2023-05-02T12:45:33;99553.81;;;21.22;28.85
80149;BME280;69473;42.426;26.644;2023-05-02T12:48:17;99550.75;;;21.33;29.62
80149;BME280;69473;42.426;26.644;2023-05-02T12:50:43;99554.63;;;21.70;28.70
80149;BME280;69473;42.426;26.644;2023-05-02T12:53:09;99543.78;;;21.77;27.70
80149;BME280;69473;42.426;26.644;2023-05-02T12:55:34;99545.50;;;21.78;28.93
80149;BME280;69473;42.426;26.644;2023-05-02T12:58:02;99530.34;;;21.83;28.86
80149;BME280;69473;42.426;26.644;2023-05-02T13:00:29;99541.00;;;21.80;27.89
80149;BME280;69473;42.426;26.644;2023-05-02T13:02:55;99531.59;;;21.53;28.92
80149;BME280;69473;42.426;26.644;2023-05-02T13:05:21;99526.66;;;21.43;29.45
80149;BME280;69473;42.426;26.644;2023-05-02T13:07:46;99530.84;;;21.71;28.14
80149;BME280;69473;42.426;26.644;2023-05-02T13:10:12;99536.09;;;21.71;28.29
80149;BME280;69473;42.426;26.644;2023-05-02T13:12:38;99550.34;;;21.67;28.05
80149;BME280;69473;42.426;26.644;2023-05-02T13:15:05;99552.69;;;21.53;30.44
80149;BME280;69473;42.426;26.644;2023-05-02T13:17:32;99555.66;;;21.43;29.23
80149;BME280;69473;42.426;26.644;2023-05-02T13:19:58;99553.69;;;21.25;29.45
80149;BME280;69473;42.426;26.644;2023-05-02T13:22:24;99537.19;;;21.20;28.28
80149;BME280;69473;42.426;26.644;2023-05-02T13:24:50;99535.56;;;20.92;29.55
80149;BME280;69473;42.426;26.644;2023-05-02T13:27:16;99528.59;;;21.15;29.76
80149;BME280;69473;42.426;26.644;2023-05-02T13:29:45;99526.78;;;21.40;28.21
80149;BME280;69473;42.426;26.644;2023-05-02T13:32:11;99531.78;;;21.23;28.78
80149;BME280;69473;42.426;26.644;2023-05-02T13:34:37;99529.41;;;21.17;29.00
80149;BME280;69473;42.426;26.644;2023-05-02T13:37:02;99534.44;;;21.23;28.67
80149;BME280;69473;42.426;26.644;2023-05-02T13:39:28;99527.47;;;21.22;29.85